sensor_id;sensor_type;location;lat;lon;timestamp;temperature;humidity
22635;DHT22;11484;50.858;4.384;2023-03-14T00:00:38;12.40;99.90
22635;DHT22;11484;50.858;4.384;2023-03-14T00:03:04;12.40;99.90
22635;DHT22;11484;50.858;4.384;2023-03-14T00:05:29;12.40;99.90
22635;DHT22;11484;50.858;4.384;2023-03-14T00:07:55;12.40;99.90
22635;DHT22;11484;50.858;4.384;2023-03-14T00:10:21;12.30;99.90
22635;DHT22;11484;50.858;4.384;2023-03-14T00:12:46;12.30;99.90
22635;DHT22;11484;50.858;4.384;2023-03-14T00:15:12;12.40;99.90
22635;DHT22;11484;50.858;4.384;2023-03-14T00:17:39;12.30;99.90
22635;DHT22;11484;50.858;4.384;2023-03-14T00:20:06;12.30;99.90
22635;DHT22;11484;50.858;4.384;2023-03-14T00:22:37;12.20;99.90
22635;DHT22;11484;50.858;4.384;2023-03-14T00:25:04;12.10;99.90
22635;DHT22;11484;50.858;4.384;2023-03-14T00:27:30;12.00;99.90
22635;DHT22;11484;50.858;4.384;2023-03-14T00:29:56;11.90;99.90
22635;DHT22;11484;50.858;4.384;2023-03-14T00:32:22;11.80;99.90
22635;DHT22;11484;50.858;4.384;2023-03-14T00:34:48;11.90;99.90
22635;DHT22;11484;50.858;4.384;2023-03-14T00:37:14;11.90;99.90
22635;DHT22;11484;50.858;4.384;2023-03-14T00:39:39;11.90;99.90
22635;DHT22;11484;50.858;4.384;2023-03-14T00:42:05;11.90;99.90
22635;DHT22;11484;50.858;4.384;2023-03-14T00:44:31;12.00;99.90
22635;DHT22;11484;50.858;4.384;2023-03-14T00:46:57;12.00;99.90
22635;DHT22;11484;50.858;4.384;2023-03-14T00:49:23;12.00;99.90
22635;DHT22;11484;50.858;4.384;2023-03-14T00:51:49;12.10;99.90
22635;DHT22;11484;50.858;4.384;2023-03-14T00:54:17;12.10;99.90
22635;DHT22;11484;50.858;4.384;2023-03-14T00:56:42;12.00;99.90
22635;DHT22;11484;50.858;4.384;2023-03-14T00:59:08;12.00;99.90
22635;DHT22;11484;50.858;4.384;2023-03-14T01:01:34;11.90;99.90
22635;DHT22;11484;50.858;4.384;2023-03-14T01:04:00;11.80;99.90
22635;DHT22;11484;50.858;4.384;2023-03-14T01:06:28;11.80;99.90
22635;DHT22;11484;50.858;4.384;2023-03-14T01:08:55;11.70;99.90
22635;DHT22;11484;50.858;4.384;2023-03-14T01:11:30;11.70;99.90
22635;DHT22;11484;50.858;4.384;2023-03-14T01:13:56;11.70;99.90
22635;DHT22;11484;50.858;4.384;2023-03-14T01:16:24;11.70;99.90
22635;DHT22;11484;50.858;4.384;2023-03-14T01:18:50;11.70;99.90
22635;DHT22;11484;50.858;4.384;2023-03-14T01:21:27;11.70;99.90
22635;DHT22;11484;50.858;4.384;2023-03-14T01:23:55;11.70;99.90
22635;DHT22;11484;50.858;4.384;2023-03-14T01:26:23;11.70;99.90
22635;DHT22;11484;50.858;4.384;2023-03-14T01:28:50;11.80;99.90
22635;DHT22;11484;50.858;4.384;2023-03-14T01:31:17;11.80;99.90
22635;DHT22;11484;50.858;4.384;2023-03-14T01:33:44;11.90;99.90
22635;DHT22;11484;50.858;4.384;2023-03-14T01:36:10;11.80;99.90
22635;DHT22;11484;50.858;4.384;2023-03-14T01:38:38;11.70;99.90
22635;DHT22;11484;50.858;4.384;2023-03-14T01:41:04;11.60;99.90
22635;DHT22;11484;50.858;4.384;2023-03-14T01:43:30;11.50;99.90
22635;DHT22;11484;50.858;4.384;2023-03-14T01:48:44;11.50;99.90
22635;DHT22;11484;50.858;4.384;2023-03-14T01:51:36;11.40;99.90
22635;DHT22;11484;50.858;4.384;2023-03-14T01:54:16;11.50;99.90
22635;DHT22;11484;50.858;4.384;2023-03-14T01:56:46;11.50;99.90
22635;DHT22;11484;50.858;4.384;2023-03-14T01:59:13;11.60;99.90
22635;DHT22;11484;50.858;4.384;2023-03-14T02:01:43;11.60;99.90
22635;DHT22;11484;50.858;4.384;2023-03-14T02:04:10;11.60;99.90
22635;DHT22;11484;50.858;4.384;2023-03-14T02:07:08;11.70;99.90
22635;DHT22;11484;50.858;4.384;2023-03-14T02:09:37;11.70;99.90
22635;DHT22;11484;50.858;4.384;2023-03-14T02:12:04;11.60;99.90
22635;DHT22;11484;50.858;4.384;2023-03-14T02:14:33;11.60;99.90
22635;DHT22;11484;50.858;4.384;2023-03-14T02:17:01;11.50;99.90
22635;DHT22;11484;50.858;4.384;2023-03-14T02:19:40;11.40;99.90
22635;DHT22;11484;50.858;4.384;2023-03-14T02:22:11;11.20;99.90
22635;DHT22;11484;50.858;4.384;2023-03-14T02:24:48;11.20;99.90
22635;DHT22;11484;50.858;4.384;2023-03-14T02:27:18;11.10;99.90
22635;DHT22;11484;50.858;4.384;2023-03-14T02:30:18;11.00;99.90
22635;DHT22;11484;50.858;4.384;2023-03-14T02:32:48;11.10;99.90
22635;DHT22;11484;50.858;4.384;2023-03-14T02:35:27;11.10;99.90
22635;DHT22;11484;50.858;4.384;2023-03-14T02:40:49;11.20;99.90
22635;DHT22;11484;50.858;4.384;2023-03-14T02:43:15;11.00;99.90
22635;DHT22;11484;50.858;4.384;2023-03-14T02:45:48;11.00;99.90
22635;DHT22;11484;50.858;4.384;2023-03-14T02:50:41;11.00;99.90
22635;DHT22;11484;50.858;4.384;2023-03-14T02:53:07;11.00;99.90
22635;DHT22;11484;50.858;4.384;2023-03-14T02:55:33;11.00;99.90
22635;DHT22;11484;50.858;4.384;2023-03-14T02:57:58;11.00;99.90
22635;DHT22;11484;50.858;4.384;2023-03-14T03:00:24;11.00;99.90
22635;DHT22;11484;50.858;4.384;2023-03-14T03:02:51;11.00;99.90
22635;DHT22;11484;50.858;4.384;2023-03-14T03:05:16;11.00;99.90
22635;DHT22;11484;50.858;4.384;2023-03-14T03:07:42;11.00;99.90
22635;DHT22;11484;50.858;4.384;2023-03-14T03:10:08;11.10;99.90
22635;DHT22;11484;50.858;4.384;2023-03-14T03:12:34;11.20;99.90
22635;DHT22;11484;50.858;4.384;2023-03-14T03:15:00;11.10;99.90
22635;DHT22;11484;50.858;4.384;2023-03-14T03:17:25;11.10;99.90
22635;DHT22;11484;50.858;4.384;2023-03-14T03:19:51;11.00;99.90
22635;DHT22;11484;50.858;4.384;2023-03-14T03:22:16;11.00;99.90
22635;DHT22;11484;50.858;4.384;2023-03-14T03:24:42;11.00;99.90
22635;DHT22;11484;50.858;4.384;2023-03-14T03:27:08;11.00;99.90
22635;DHT22;11484;50.858;4.384;2023-03-14T03:29:33;11.00;99.90
22635;DHT22;11484;50.858;4.384;2023-03-14T03:31:59;11.00;99.90
22635;DHT22;11484;50.858;4.384;2023-03-14T03:34:25;11.00;99.90
22635;DHT22;11484;50.858;4.384;2023-03-14T03:36:55;11.10;99.90
22635;DHT22;11484;50.858;4.384;2023-03-14T03:39:20;11.10;99.90
22635;DHT22;11484;50.858;4.384;2023-03-14T03:41:46;11.00;99.90
22635;DHT22;11484;50.858;4.384;2023-03-14T03:44:12;11.00;99.90
22635;DHT22;11484;50.858;4.384;2023-03-14T03:46:39;11.10;99.90
22635;DHT22;11484;50.858;4.384;2023-03-14T03:49:04;11.00;99.90
22635;DHT22;11484;50.858;4.384;2023-03-14T03:51:30;11.00;99.90
22635;DHT22;11484;50.858;4.384;2023-03-14T03:53:56;11.00;99.90
22635;DHT22;11484;50.858;4.384;2023-03-14T03:56:22;11.00;99.90
22635;DHT22;11484;50.858;4.384;2023-03-14T03:58:48;11.00;99.90
22635;DHT22;11484;50.858;4.384;2023-03-14T04:01:14;10.90;99.90
22635;DHT22;11484;50.858;4.384;2023-03-14T04:03:39;10.90;99.90
22635;DHT22;11484;50.858;4.384;2023-03-14T04:06:08;11.00;99.90
22635;DHT22;11484;50.858;4.384;2023-03-14T04:08:35;11.00;99.90
22635;DHT22;11484;50.858;4.384;2023-03-14T04:11:01;11.10;99.90
22635;DHT22;11484;50.858;4.384;2023-03-14T04:13:28;11.10;99.90
22635;DHT22;11484;50.858;4.384;2023-03-14T04:15:54;11.10;99.90
22635;DHT22;11484;50.858;4.384;2023-03-14T04:18:21;11.10;99.90
22635;DHT22;11484;50.858;4.384;2023-03-14T04:20:52;11.10;99.90
22635;DHT22;11484;50.858;4.384;2023-03-14T04:23:18;11.10;99.90
22635;DHT22;11484;50.858;4.384;2023-03-14T04:25:43;11.20;99.90
22635;DHT22;11484;50.858;4.384;2023-03-14T04:28:09;11.20;99.90
22635;DHT22;11484;50.858;4.384;2023-03-14T04:30:35;11.20;99.90
22635;DHT22;11484;50.858;4.384;2023-03-14T04:33:00;11.20;99.90
22635;DHT22;11484;50.858;4.384;2023-03-14T04:35:26;11.20;99.90
22635;DHT22;11484;50.858;4.384;2023-03-14T04:37:52;11.20;99.90
22635;DHT22;11484;50.858;4.384;2023-03-14T04:40:18;11.20;99.90
22635;DHT22;11484;50.858;4.384;2023-03-14T04:42:44;11.30;99.90
22635;DHT22;11484;50.858;4.384;2023-03-14T04:45:09;11.30;99.90
22635;DHT22;11484;50.858;4.384;2023-03-14T04:47:35;11.30;99.90
22635;DHT22;11484;50.858;4.384;2023-03-14T04:50:01;11.40;99.90
22635;DHT22;11484;50.858;4.384;2023-03-14T04:52:27;11.50;99.90
22635;DHT22;11484;50.858;4.384;2023-03-14T04:54:53;11.50;99.90
22635;DHT22;11484;50.858;4.384;2023-03-14T04:57:18;11.50;99.90
22635;DHT22;11484;50.858;4.384;2023-03-14T04:59:44;11.40;99.90
22635;DHT22;11484;50.858;4.384;2023-03-14T05:02:10;11.40;99.90
22635;DHT22;11484;50.858;4.384;2023-03-14T05:04:36;11.30;99.90
22635;DHT22;11484;50.858;4.384;2023-03-14T05:07:01;11.40;99.90
22635;DHT22;11484;50.858;4.384;2023-03-14T05:09:27;11.40;99.90
22635;DHT22;11484;50.858;4.384;2023-03-14T05:11:53;11.50;99.90
22635;DHT22;11484;50.858;4.384;2023-03-14T05:14:19;11.60;99.90
22635;DHT22;11484;50.858;4.384;2023-03-14T05:16:44;11.70;99.90
22635;DHT22;11484;50.858;4.384;2023-03-14T05:19:10;11.80;99.90
22635;DHT22;11484;50.858;4.384;2023-03-14T05:21:36;11.90;99.90
22635;DHT22;11484;50.858;4.384;2023-03-14T05:24:02;11.90;99.90
22635;DHT22;11484;50.858;4.384;2023-03-14T05:26:28;11.80;99.90
22635;DHT22;11484;50.858;4.384;2023-03-14T05:28:54;11.70;99.90
22635;DHT22;11484;50.858;4.384;2023-03-14T05:31:20;11.70;99.90
22635;DHT22;11484;50.858;4.384;2023-03-14T05:33:46;11.60;99.90
22635;DHT22;11484;50.858;4.384;2023-03-14T05:36:11;11.70;99.90
22635;DHT22;11484;50.858;4.384;2023-03-14T05:38:37;11.70;99.90
22635;DHT22;11484;50.858;4.384;2023-03-14T05:41:03;11.80;99.90
22635;DHT22;11484;50.858;4.384;2023-03-14T05:43:28;11.80;99.90
22635;DHT22;11484;50.858;4.384;2023-03-14T05:45:54;11.80;99.90
22635;DHT22;11484;50.858;4.384;2023-03-14T05:48:20;11.80;99.90
22635;DHT22;11484;50.858;4.384;2023-03-14T05:50:47;11.80;99.90
22635;DHT22;11484;50.858;4.384;2023-03-14T05:53:13;11.90;99.90
22635;DHT22;11484;50.858;4.384;2023-03-14T05:55:39;11.80;99.90
22635;DHT22;11484;50.858;4.384;2023-03-14T05:58:05;11.70;99.90
22635;DHT22;11484;50.858;4.384;2023-03-14T06:00:31;11.80;99.90
22635;DHT22;11484;50.858;4.384;2023-03-14T06:02:57;11.80;99.90
22635;DHT22;11484;50.858;4.384;2023-03-14T06:05:22;11.80;99.90
22635;DHT22;11484;50.858;4.384;2023-03-14T06:07:51;11.80;99.90
22635;DHT22;11484;50.858;4.384;2023-03-14T06:10:17;11.90;99.90
22635;DHT22;11484;50.858;4.384;2023-03-14T06:12:42;11.90;99.90
22635;DHT22;11484;50.858;4.384;2023-03-14T06:15:08;11.90;99.90
22635;DHT22;11484;50.858;4.384;2023-03-14T06:17:34;11.90;99.90
22635;DHT22;11484;50.858;4.384;2023-03-14T06:20:00;11.90;99.90
22635;DHT22;11484;50.858;4.384;2023-03-14T06:22:25;11.90;99.90
22635;DHT22;11484;50.858;4.384;2023-03-14T06:24:51;12.00;99.90
22635;DHT22;11484;50.858;4.384;2023-03-14T06:27:17;12.00;99.90
22635;DHT22;11484;50.858;4.384;2023-03-14T06:29:43;12.00;99.90
22635;DHT22;11484;50.858;4.384;2023-03-14T06:32:08;12.10;99.90
22635;DHT22;11484;50.858;4.384;2023-03-14T06:34:34;12.20;99.90
22635;DHT22;11484;50.858;4.384;2023-03-14T06:37:00;12.10;99.90
22635;DHT22;11484;50.858;4.384;2023-03-14T06:39:25;12.10;99.90
22635;DHT22;11484;50.858;4.384;2023-03-14T06:41:51;12.00;99.90
22635;DHT22;11484;50.858;4.384;2023-03-14T06:44:17;11.90;99.90
22635;DHT22;11484;50.858;4.384;2023-03-14T06:46:42;11.80;99.90
22635;DHT22;11484;50.858;4.384;2023-03-14T06:49:08;11.80;99.90
22635;DHT22;11484;50.858;4.384;2023-03-14T06:51:34;11.50;99.90
22635;DHT22;11484;50.858;4.384;2023-03-14T06:54:00;11.20;99.90
22635;DHT22;11484;50.858;4.384;2023-03-14T06:56:25;11.00;99.90
22635;DHT22;11484;50.858;4.384;2023-03-14T06:58:51;10.70;99.90
22635;DHT22;11484;50.858;4.384;2023-03-14T07:01:23;10.50;99.90
22635;DHT22;11484;50.858;4.384;2023-03-14T07:03:49;10.40;99.90
22635;DHT22;11484;50.858;4.384;2023-03-14T07:06:15;10.20;99.90
22635;DHT22;11484;50.858;4.384;2023-03-14T07:08:41;10.10;99.90
22635;DHT22;11484;50.858;4.384;2023-03-14T07:11:07;10.00;99.90
22635;DHT22;11484;50.858;4.384;2023-03-14T07:13:35;10.00;99.90
22635;DHT22;11484;50.858;4.384;2023-03-14T07:16:01;9.90;99.90
22635;DHT22;11484;50.858;4.384;2023-03-14T07:18:27;9.80;99.90
22635;DHT22;11484;50.858;4.384;2023-03-14T07:20:52;9.70;99.90
22635;DHT22;11484;50.858;4.384;2023-03-14T07:23:18;9.60;99.90
22635;DHT22;11484;50.858;4.384;2023-03-14T07:25:44;9.50;99.90
22635;DHT22;11484;50.858;4.384;2023-03-14T07:28:09;9.50;99.90
22635;DHT22;11484;50.858;4.384;2023-03-14T07:30:35;9.50;99.90
22635;DHT22;11484;50.858;4.384;2023-03-14T07:33:01;9.40;99.90
22635;DHT22;11484;50.858;4.384;2023-03-14T07:35:32;9.40;99.90
22635;DHT22;11484;50.858;4.384;2023-03-14T07:37:59;9.50;99.90
22635;DHT22;11484;50.858;4.384;2023-03-14T07:40:29;9.40;99.90
22635;DHT22;11484;50.858;4.384;2023-03-14T07:43:04;9.40;99.90
22635;DHT22;11484;50.858;4.384;2023-03-14T07:45:31;9.40;99.90
22635;DHT22;11484;50.858;4.384;2023-03-14T07:48:00;9.30;99.90
22635;DHT22;11484;50.858;4.384;2023-03-14T07:50:31;9.30;99.90
22635;DHT22;11484;50.858;4.384;2023-03-14T07:53:00;9.30;99.90
22635;DHT22;11484;50.858;4.384;2023-03-14T07:55:30;9.30;99.90
22635;DHT22;11484;50.858;4.384;2023-03-14T07:57:59;9.40;99.90
22635;DHT22;11484;50.858;4.384;2023-03-14T08:00:28;9.40;99.90
22635;DHT22;11484;50.858;4.384;2023-03-14T08:02:57;9.50;99.90
22635;DHT22;11484;50.858;4.384;2023-03-14T08:05:23;9.40;99.90
22635;DHT22;11484;50.858;4.384;2023-03-14T08:07:50;9.40;99.90
22635;DHT22;11484;50.858;4.384;2023-03-14T08:10:20;9.50;99.90
22635;DHT22;11484;50.858;4.384;2023-03-14T08:12:54;9.50;99.90
22635;DHT22;11484;50.858;4.384;2023-03-14T08:15:21;9.40;99.90
22635;DHT22;11484;50.858;4.384;2023-03-14T08:17:47;9.40;99.90
22635;DHT22;11484;50.858;4.384;2023-03-14T08:20:21;9.40;99.90
22635;DHT22;11484;50.858;4.384;2023-03-14T08:22:50;9.40;99.90
22635;DHT22;11484;50.858;4.384;2023-03-14T08:25:28;9.50;99.90
22635;DHT22;11484;50.858;4.384;2023-03-14T08:28:00;9.60;99.90
22635;DHT22;11484;50.858;4.384;2023-03-14T08:30:26;9.50;99.90
22635;DHT22;11484;50.858;4.384;2023-03-14T08:32:52;9.50;99.90
22635;DHT22;11484;50.858;4.384;2023-03-14T08:35:18;9.50;99.90
22635;DHT22;11484;50.858;4.384;2023-03-14T08:37:44;9.40;99.90
22635;DHT22;11484;50.858;4.384;2023-03-14T08:40:10;9.40;99.90
22635;DHT22;11484;50.858;4.384;2023-03-14T08:42:38;9.40;99.90
22635;DHT22;11484;50.858;4.384;2023-03-14T08:45:04;9.20;99.90
22635;DHT22;11484;50.858;4.384;2023-03-14T08:47:30;9.10;99.90
22635;DHT22;11484;50.858;4.384;2023-03-14T08:49:56;9.00;99.90
22635;DHT22;11484;50.858;4.384;2023-03-14T08:52:22;8.90;99.90
22635;DHT22;11484;50.858;4.384;2023-03-14T08:54:48;8.90;99.90
22635;DHT22;11484;50.858;4.384;2023-03-14T08:57:14;8.90;99.90
22635;DHT22;11484;50.858;4.384;2023-03-14T08:59:40;8.80;99.90
22635;DHT22;11484;50.858;4.384;2023-03-14T09:02:05;8.80;99.90
22635;DHT22;11484;50.858;4.384;2023-03-14T09:04:32;8.70;99.90
22635;DHT22;11484;50.858;4.384;2023-03-14T09:06:58;8.60;99.90
22635;DHT22;11484;50.858;4.384;2023-03-14T09:09:25;8.70;99.90
22635;DHT22;11484;50.858;4.384;2023-03-14T09:11:56;8.80;99.90
22635;DHT22;11484;50.858;4.384;2023-03-14T09:14:21;8.80;99.90
22635;DHT22;11484;50.858;4.384;2023-03-14T09:16:47;8.80;99.90
22635;DHT22;11484;50.858;4.384;2023-03-14T09:19:13;8.80;99.90
22635;DHT22;11484;50.858;4.384;2023-03-14T09:21:38;8.90;99.90
22635;DHT22;11484;50.858;4.384;2023-03-14T09:24:05;9.00;99.90
22635;DHT22;11484;50.858;4.384;2023-03-14T09:26:31;8.90;99.90
22635;DHT22;11484;50.858;4.384;2023-03-14T09:28:57;8.90;99.90
22635;DHT22;11484;50.858;4.384;2023-03-14T09:31:22;8.90;99.90
22635;DHT22;11484;50.858;4.384;2023-03-14T09:33:48;8.90;99.90
22635;DHT22;11484;50.858;4.384;2023-03-14T09:36:14;8.80;99.90
22635;DHT22;11484;50.858;4.384;2023-03-14T09:38:39;8.70;99.90
22635;DHT22;11484;50.858;4.384;2023-03-14T09:41:30;8.80;99.90
22635;DHT22;11484;50.858;4.384;2023-03-14T09:44:21;8.80;99.90
22635;DHT22;11484;50.858;4.384;2023-03-14T09:46:52;8.80;99.90
22635;DHT22;11484;50.858;4.384;2023-03-14T09:49:37;8.80;99.90
22635;DHT22;11484;50.858;4.384;2023-03-14T09:52:26;8.70;99.90
22635;DHT22;11484;50.858;4.384;2023-03-14T09:54:58;8.80;99.90
22635;DHT22;11484;50.858;4.384;2023-03-14T09:57:26;8.80;99.90
22635;DHT22;11484;50.858;4.384;2023-03-14T09:59:56;8.80;99.90
22635;DHT22;11484;50.858;4.384;2023-03-14T10:02:27;8.80;99.90
22635;DHT22;11484;50.858;4.384;2023-03-14T10:04:54;8.90;99.90
22635;DHT22;11484;50.858;4.384;2023-03-14T10:07:32;8.90;99.90
22635;DHT22;11484;50.858;4.384;2023-03-14T10:09:59;8.90;99.90
22635;DHT22;11484;50.858;4.384;2023-03-14T10:12:36;9.10;99.90
22635;DHT22;11484;50.858;4.384;2023-03-14T10:15:13;9.20;99.90
22635;DHT22;11484;50.858;4.384;2023-03-14T10:17:49;9.30;99.90
22635;DHT22;11484;50.858;4.384;2023-03-14T10:20:38;9.50;99.90
22635;DHT22;11484;50.858;4.384;2023-03-14T10:23:05;9.40;99.90
22635;DHT22;11484;50.858;4.384;2023-03-14T10:25:37;9.20;99.90
22635;DHT22;11484;50.858;4.384;2023-03-14T10:28:04;9.20;99.90
22635;DHT22;11484;50.858;4.384;2023-03-14T10:30:40;9.10;99.90
22635;DHT22;11484;50.858;4.384;2023-03-14T10:33:32;8.90;99.90
22635;DHT22;11484;50.858;4.384;2023-03-14T10:36:02;8.80;99.90
22635;DHT22;11484;50.858;4.384;2023-03-14T10:38:30;8.70;99.90
22635;DHT22;11484;50.858;4.384;2023-03-14T10:40:57;8.70;99.90
22635;DHT22;11484;50.858;4.384;2023-03-14T10:43:35;8.70;99.90
22635;DHT22;11484;50.858;4.384;2023-03-14T10:46:08;8.70;99.90
22635;DHT22;11484;50.858;4.384;2023-03-14T10:48:38;8.70;99.90
22635;DHT22;11484;50.858;4.384;2023-03-14T10:51:28;8.60;99.90
22635;DHT22;11484;50.858;4.384;2023-03-14T10:54:19;8.60;99.90
22635;DHT22;11484;50.858;4.384;2023-03-14T10:56:45;8.60;99.90
22635;DHT22;11484;50.858;4.384;2023-03-14T10:59:20;8.70;99.90
22635;DHT22;11484;50.858;4.384;2023-03-14T11:07:33;8.60;99.90
22635;DHT22;11484;50.858;4.384;2023-03-14T11:10:26;8.70;99.90
22635;DHT22;11484;50.858;4.384;2023-03-14T11:13:21;8.70;99.90
22635;DHT22;11484;50.858;4.384;2023-03-14T11:18:55;8.60;99.90
22635;DHT22;11484;50.858;4.384;2023-03-14T11:27:18;8.30;99.90
22635;DHT22;11484;50.858;4.384;2023-03-14T11:29:58;8.00;99.90
22635;DHT22;11484;50.858;4.384;2023-03-14T11:35:26;8.00;99.90
22635;DHT22;11484;50.858;4.384;2023-03-14T11:38:58;7.90;99.90
22635;DHT22;11484;50.858;4.384;2023-03-14T11:40:59;8.00;99.90
22635;DHT22;11484;50.858;4.384;2023-03-14T11:43:39;7.90;99.90
22635;DHT22;11484;50.858;4.384;2023-03-14T11:48:43;7.90;99.90
22635;DHT22;11484;50.858;4.384;2023-03-14T11:51:24;7.90;99.90
22635;DHT22;11484;50.858;4.384;2023-03-14T11:59:21;8.00;99.90
22635;DHT22;11484;50.858;4.384;2023-03-14T12:01:57;8.00;99.90
22635;DHT22;11484;50.858;4.384;2023-03-14T12:07:23;8.10;99.90
22635;DHT22;11484;50.858;4.384;2023-03-14T12:09:53;8.10;99.90
22635;DHT22;11484;50.858;4.384;2023-03-14T12:12:22;8.20;99.90
22635;DHT22;11484;50.858;4.384;2023-03-14T12:14:58;8.40;99.90
22635;DHT22;11484;50.858;4.384;2023-03-14T12:17:38;8.50;99.90
22635;DHT22;11484;50.858;4.384;2023-03-14T12:23:06;8.60;99.90
22635;DHT22;11484;50.858;4.384;2023-03-14T12:25:36;8.60;99.90
22635;DHT22;11484;50.858;4.384;2023-03-14T12:28:05;8.50;99.90
22635;DHT22;11484;50.858;4.384;2023-03-14T12:30:42;8.60;99.90
22635;DHT22;11484;50.858;4.384;2023-03-14T12:35:46;8.60;99.90
22635;DHT22;11484;50.858;4.384;2023-03-14T12:43:33;8.30;99.90
22635;DHT22;11484;50.858;4.384;2023-03-14T12:46:25;8.30;99.90
22635;DHT22;11484;50.858;4.384;2023-03-14T12:51:41;8.10;99.90
22635;DHT22;11484;50.858;4.384;2023-03-14T12:54:40;8.20;99.90
22635;DHT22;11484;50.858;4.384;2023-03-14T12:59:57;8.00;99.90
22635;DHT22;11484;50.858;4.384;2023-03-14T13:15:30;8.60;99.90
22635;DHT22;11484;50.858;4.384;2023-03-14T13:20:37;8.70;99.90
22635;DHT22;11484;50.858;4.384;2023-03-14T13:23:04;8.60;99.90
22635;DHT22;11484;50.858;4.384;2023-03-14T13:25:33;8.60;99.90
22635;DHT22;11484;50.858;4.384;2023-03-14T13:28:00;8.50;99.90
22635;DHT22;11484;50.858;4.384;2023-03-14T13:30:28;8.40;99.90
22635;DHT22;11484;50.858;4.384;2023-03-14T13:32:55;8.30;99.90
22635;DHT22;11484;50.858;4.384;2023-03-14T13:35:28;8.50;99.90
22635;DHT22;11484;50.858;4.384;2023-03-14T13:38:00;8.60;99.90
22635;DHT22;11484;50.858;4.384;2023-03-14T13:40:33;8.60;99.90
22635;DHT22;11484;50.858;4.384;2023-03-14T13:45:56;8.90;99.90
22635;DHT22;11484;50.858;4.384;2023-03-14T13:48:26;9.00;99.90
22635;DHT22;11484;50.858;4.384;2023-03-14T13:51:01;9.10;99.90
22635;DHT22;11484;50.858;4.384;2023-03-14T13:53:28;9.20;99.90
22635;DHT22;11484;50.858;4.384;2023-03-14T13:55:54;9.30;99.90
22635;DHT22;11484;50.858;4.384;2023-03-14T13:58:31;9.30;99.90
22635;DHT22;11484;50.858;4.384;2023-03-14T14:01:06;9.30;99.90
22635;DHT22;11484;50.858;4.384;2023-03-14T14:03:38;9.30;99.90
22635;DHT22;11484;50.858;4.384;2023-03-14T14:06:08;9.30;99.90
22635;DHT22;11484;50.858;4.384;2023-03-14T14:08:35;9.30;99.90
22635;DHT22;11484;50.858;4.384;2023-03-14T14:11:05;9.40;99.90
22635;DHT22;11484;50.858;4.384;2023-03-14T14:13:33;9.40;99.90
22635;DHT22;11484;50.858;4.384;2023-03-14T14:16:01;9.50;99.90
22635;DHT22;11484;50.858;4.384;2023-03-14T14:18:30;9.50;99.90
22635;DHT22;11484;50.858;4.384;2023-03-14T14:20:59;9.60;99.90
22635;DHT22;11484;50.858;4.384;2023-03-14T14:23:27;9.70;99.90
22635;DHT22;11484;50.858;4.384;2023-03-14T14:25:58;9.70;99.90
22635;DHT22;11484;50.858;4.384;2023-03-14T14:28:36;9.60;99.90
22635;DHT22;11484;50.858;4.384;2023-03-14T14:31:21;9.70;99.90
22635;DHT22;11484;50.858;4.384;2023-03-14T14:34:00;9.70;99.90
22635;DHT22;11484;50.858;4.384;2023-03-14T14:39:18;9.80;99.90
22635;DHT22;11484;50.858;4.384;2023-03-14T14:41:48;9.70;99.90
22635;DHT22;11484;50.858;4.384;2023-03-14T14:44:18;9.50;99.90
22635;DHT22;11484;50.858;4.384;2023-03-14T14:46:44;9.30;99.90
22635;DHT22;11484;50.858;4.384;2023-03-14T14:49:13;9.10;99.90
22635;DHT22;11484;50.858;4.384;2023-03-14T14:57:21;8.30;99.90
22635;DHT22;11484;50.858;4.384;2023-03-14T14:59:49;8.00;99.90
22635;DHT22;11484;50.858;4.384;2023-03-14T15:02:49;7.90;99.90
22635;DHT22;11484;50.858;4.384;2023-03-14T15:05:22;8.00;99.90
22635;DHT22;11484;50.858;4.384;2023-03-14T15:07:48;8.00;99.90
22635;DHT22;11484;50.858;4.384;2023-03-14T15:10:17;8.20;99.90
22635;DHT22;11484;50.858;4.384;2023-03-14T15:12:43;8.20;99.90
22635;DHT22;11484;50.858;4.384;2023-03-14T15:15:10;8.40;99.90
22635;DHT22;11484;50.858;4.384;2023-03-14T15:17:36;8.50;99.90
22635;DHT22;11484;50.858;4.384;2023-03-14T15:20:04;8.60;99.90
22635;DHT22;11484;50.858;4.384;2023-03-14T15:22:31;8.70;99.90
22635;DHT22;11484;50.858;4.384;2023-03-14T15:24:56;8.80;99.90
22635;DHT22;11484;50.858;4.384;2023-03-14T15:27:22;8.80;99.90
22635;DHT22;11484;50.858;4.384;2023-03-14T15:29:48;9.00;99.90
22635;DHT22;11484;50.858;4.384;2023-03-14T15:32:16;9.10;99.90
22635;DHT22;11484;50.858;4.384;2023-03-14T15:34:42;9.20;99.90
22635;DHT22;11484;50.858;4.384;2023-03-14T15:37:13;9.30;99.80
22635;DHT22;11484;50.858;4.384;2023-03-14T15:39:41;9.40;99.30
22635;DHT22;11484;50.858;4.384;2023-03-14T15:42:07;9.50;98.80
22635;DHT22;11484;50.858;4.384;2023-03-14T15:44:33;9.50;98.80
22635;DHT22;11484;50.858;4.384;2023-03-14T15:46:58;9.50;99.60
22635;DHT22;11484;50.858;4.384;2023-03-14T15:49:24;9.50;99.60
22635;DHT22;11484;50.858;4.384;2023-03-14T15:51:50;9.60;99.40
22635;DHT22;11484;50.858;4.384;2023-03-14T15:54:15;9.60;99.10
22635;DHT22;11484;50.858;4.384;2023-03-14T15:56:41;9.50;99.30
22635;DHT22;11484;50.858;4.384;2023-03-14T15:59:07;9.40;99.20
22635;DHT22;11484;50.858;4.384;2023-03-14T16:01:33;9.40;99.20
22635;DHT22;11484;50.858;4.384;2023-03-14T16:03:58;9.30;99.20
22635;DHT22;11484;50.858;4.384;2023-03-14T16:06:24;9.30;98.90
22635;DHT22;11484;50.858;4.384;2023-03-14T16:08:50;9.30;99.10
22635;DHT22;11484;50.858;4.384;2023-03-14T16:11:16;9.30;98.80
22635;DHT22;11484;50.858;4.384;2023-03-14T16:13:43;9.20;98.90
22635;DHT22;11484;50.858;4.384;2023-03-14T16:16:09;9.30;99.30
22635;DHT22;11484;50.858;4.384;2023-03-14T16:18:38;9.30;99.70
22635;DHT22;11484;50.858;4.384;2023-03-14T16:21:06;9.20;99.00
22635;DHT22;11484;50.858;4.384;2023-03-14T16:23:33;9.20;99.20
22635;DHT22;11484;50.858;4.384;2023-03-14T16:26:02;9.10;99.20
22635;DHT22;11484;50.858;4.384;2023-03-14T16:28:28;9.10;99.70
22635;DHT22;11484;50.858;4.384;2023-03-14T16:31:03;9.00;99.90
22635;DHT22;11484;50.858;4.384;2023-03-14T16:33:29;9.10;99.90
22635;DHT22;11484;50.858;4.384;2023-03-14T16:35:56;9.10;99.90
22635;DHT22;11484;50.858;4.384;2023-03-14T16:38:23;9.20;99.90
22635;DHT22;11484;50.858;4.384;2023-03-14T16:41:01;9.00;99.90
22635;DHT22;11484;50.858;4.384;2023-03-14T16:43:28;9.10;99.90
22635;DHT22;11484;50.858;4.384;2023-03-14T16:45:58;9.10;99.90
22635;DHT22;11484;50.858;4.384;2023-03-14T16:48:26;9.00;99.90
22635;DHT22;11484;50.858;4.384;2023-03-14T16:50:53;9.10;99.90
22635;DHT22;11484;50.858;4.384;2023-03-14T16:53:20;9.00;99.90
22635;DHT22;11484;50.858;4.384;2023-03-14T16:55:46;8.90;99.90
22635;DHT22;11484;50.858;4.384;2023-03-14T16:58:12;9.00;99.90
22635;DHT22;11484;50.858;4.384;2023-03-14T17:00:38;8.90;99.90
22635;DHT22;11484;50.858;4.384;2023-03-14T17:03:04;8.90;99.90
22635;DHT22;11484;50.858;4.384;2023-03-14T17:05:31;8.90;99.90
22635;DHT22;11484;50.858;4.384;2023-03-14T17:07:57;8.90;99.90
22635;DHT22;11484;50.858;4.384;2023-03-14T17:10:25;8.90;99.90